Time;durP1;ratioP1;P1;durP2;ratioP2;P2;SDS_P1;SDS_P2;PMS_P1;PMS_P2;Temp;Humidity;BMP_temperature;BMP_pressure;BME280_temperature;BME280_humidity;BME280_pressure;Samples;Min_cycle;Max_cycle;Signal;HPM_P1;HPM_P2
2022/10/11 00:00:35;;;;;;;22.52;12.10;;;;;;;10.08;100.00;97180.06;5010592;28;20030;-68
2022/10/11 00:03:01;;;;;;;20.52;11.68;;;;;;;10.18;100.00;97173.31;5010848;28;20026;-69
2022/10/11 00:05:27;;;;;;;21.35;13.88;;;;;;;10.30;100.00;97171.28;5010249;28;20087;-68
2022/10/11 00:07:52;;;;;;;24.60;13.65;;;;;;;10.53;100.00;97167.91;5010770;28;20108;-69
2022/10/11 00:10:20;;;;;;;22.48;13.70;;;;;;;10.58;100.00;97169.59;5009322;28;20033;-69
2022/10/11 00:12:46;;;;;;;20.63;14.75;;;;;;;10.57;100.00;97182.50;5010756;28;20394;-70
2022/10/11 00:15:15;;;;;;;20.92;13.55;;;;;;;10.63;100.00;97175.59;5010714;28;20034;-69
2022/10/11 00:17:40;;;;;;;26.35;12.52;;;;;;;10.62;100.00;97173.22;5010008;28;20041;-69
2022/10/11 00:20:06;;;;;;;20.88;12.80;;;;;;;10.75;100.00;97174.72;5010259;28;20221;-69
2022/10/11 00:22:33;;;;;;;23.83;12.13;;;;;;;10.88;100.00;97178.13;5009275;28;20030;-69
2022/10/11 00:24:59;;;;;;;19.80;12.57;;;;;;;10.97;100.00;97184.22;5010567;28;20033;-68
2022/10/11 00:27:24;;;;;;;17.20;11.35;;;;;;;11.00;100.00;97183.50;5010011;28;20514;-68
2022/10/11 00:29:50;;;;;;;17.75;11.73;;;;;;;11.03;100.00;97177.28;5011145;28;20160;-69
2022/10/11 00:32:15;;;;;;;19.80;12.35;;;;;;;11.04;100.00;97181.63;5010970;28;20402;-68
2022/10/11 00:34:41;;;;;;;21.88;12.15;;;;;;;11.03;100.00;97177.28;5009498;28;20066;-69
2022/10/11 00:37:07;;;;;;;20.17;12.43;;;;;;;11.03;100.00;97177.28;5009957;28;20494;-70
2022/10/11 00:39:32;;;;;;;23.40;12.10;;;;;;;11.10;100.00;97176.66;4993740;28;20116;-70
2022/10/11 00:41:58;;;;;;;17.40;11.73;;;;;;;11.28;100.00;97179.78;5014416;28;20394;-69
2022/10/11 00:44:25;;;;;;;16.58;11.52;;;;;;;11.25;100.00;97177.75;5013225;28;20098;-70
2022/10/11 00:46:59;;;;;;;16.73;11.50;;;;;;;11.23;100.00;97185.56;5012348;28;20053;-70
2022/10/11 00:49:41;;;;;;;30.27;13.25;;;;;;;11.17;100.00;97182.31;5014514;28;20034;-70
2022/10/11 00:52:19;;;;;;;23.42;11.40;;;;;;;11.22;100.00;97187.50;5014194;28;20375;-69
2022/10/11 00:54:47;;;;;;;24.25;11.35;;;;;;;11.27;100.00;97186.41;5012688;28;20026;-69
2022/10/11 00:57:17;;;;;;;22.70;11.73;;;;;;;11.23;100.00;97180.06;5012572;28;20037;-68
2022/10/11 00:59:48;;;;;;;22.17;12.27;;;;;;;11.20;100.00;97178.84;5014008;28;20125;-69
2022/10/11 01:02:14;;;;;;;22.52;14.05;;;;;;;11.32;100.00;97186.13;5014193;28;20037;-71
2022/10/11 01:04:41;;;;;;;22.65;14.02;;;;;;;11.24;100.00;97181.66;5012927;28;20038;-69
2022/10/11 01:07:08;;;;;;;26.58;14.75;;;;;;;11.51;100.00;97187.31;5014045;28;20026;-69
2022/10/11 01:09:34;;;;;;;23.92;15.13;;;;;;;11.58;100.00;97184.72;5030618;28;20089;-68
2022/10/11 01:12:02;;;;;;;21.13;13.85;;;;;;;11.55;100.00;97183.47;5022931;28;20068;-70
2022/10/11 01:14:37;;;;;;;16.60;11.15;;;;;;;11.52;100.00;97186.94;5015967;28;20056;-69
2022/10/11 01:17:09;;;;;;;17.50;9.93;;;;;;;11.48;100.00;97186.06;5015006;28;20060;-70
2022/10/11 01:19:44;;;;;;;16.08;9.43;;;;;;;11.36;100.00;97188.94;5014545;28;20112;-69
2022/10/11 01:22:38;;;;;;;13.88;9.55;;;;;;;11.27;100.00;97189.16;5020363;28;20045;-69
2022/10/11 01:25:34;;;;;;;12.20;9.38;;;;;;;11.27;100.00;97180.94;5014388;28;20353;-69
2022/10/11 01:28:11;;;;;;;21.42;11.50;;;;;;;11.29;100.00;97179.44;5014430;28;20044;-69
2022/10/11 01:30:37;;;;;;;22.70;11.30;;;;;;;11.25;100.00;97180.50;5013784;28;20053;-69
2022/10/11 01:33:15;;;;;;;20.88;10.80;;;;;;;11.17;100.00;97176.81;5013752;28;20034;-69
2022/10/11 01:35:48;;;;;;;22.95;12.10;;;;;;;11.12;100.00;97182.56;5018888;28;20034;-68
2022/10/11 01:38:29;;;;;;;21.55;13.20;;;;;;;11.10;100.00;97176.66;5025932;28;20045;-69
2022/10/11 01:41:01;;;;;;;20.52;13.75;;;;;;;11.12;100.00;97179.06;5016437;28;20076;-68
2022/10/11 01:43:27;;;;;;;26.48;14.10;;;;;;;11.13;100.00;97169.66;5013925;28;20439;-70
2022/10/11 01:45:56;;;;;;;17.33;12.73;;;;;;;11.20;100.00;97173.38;5013005;28;20097;-69
2022/10/11 01:48:21;;;;;;;34.08;14.10;;;;;;;11.24;100.00;97178.94;5013550;28;20030;-68
2022/10/11 01:50:54;;;;;;;24.35;14.00;;;;;;;11.24;100.00;97176.97;5012277;28;20505;-69
2022/10/11 01:53:57;;;;;;;20.67;13.18;;;;;;;11.23;100.00;97172.63;5011976;28;20117;-70
2022/10/11 01:56:38;;;;;;;18.77;10.93;;;;;;;11.28;100.00;97171.56;5013206;28;20359;-68
2022/10/11 01:59:43;;;;;;;18.80;11.63;;;;;;;11.25;100.00;97169.53;5013860;28;20091;-68
2022/10/11 02:02:33;;;;;;;18.55;11.50;;;;;;;11.17;100.00;97168.59;5013832;28;20026;-69
2022/10/11 02:05:07;;;;;;;16.10;10.98;;;;;;;11.09;100.00;97170.41;5013994;28;20045;-70
2022/10/11 02:07:43;;;;;;;13.80;10.90;;;;;;;11.14;100.00;97169.31;5013173;28;20085;-71
2022/10/11 02:10:16;;;;;;;15.77;9.88;;;;;;;11.17;100.00;97176.03;5012488;28;20030;-69
2022/10/11 02:12:48;;;;;;;18.70;11.13;;;;;;;11.17;100.00;97181.50;5013283;28;20129;-69
2022/10/11 02:15:16;;;;;;;17.52;10.70;;;;;;;11.20;100.00;97170.63;5013733;28;20383;-69
2022/10/11 02:17:53;;;;;;;15.27;10.18;;;;;;;11.21;100.00;97172.19;5012735;28;20036;-69
2022/10/11 02:20:20;;;;;;;18.98;10.25;;;;;;;11.22;100.00;97165.56;5012558;28;20033;-70
2022/10/11 02:22:50;;;;;;;18.23;11.57;;;;;;;11.23;100.00;97169.09;5011465;28;20184;-69
2022/10/11 02:25:25;;;;;;;19.33;10.45;;;;;;;11.31;100.00;97165.38;5011652;28;20500;-68
2022/10/11 02:27:55;;;;;;;14.30;9.85;;;;;;;11.43;100.00;97170.72;5012006;28;20069;-68
2022/10/11 02:30:21;;;;;;;20.95;10.73;;;;;;;11.29;100.00;97167.69;5012819;28;20096;-68
2022/10/11 02:32:50;;;;;;;24.38;10.48;;;;;;;11.05;100.00;97163.22;5011379;28;20490;-69
2022/10/11 02:35:16;;;;;;;16.20;8.73;;;;;;;10.85;100.00;97160.44;5010687;28;20026;-70
2022/10/11 02:37:50;;;;;;;19.17;10.43;;;;;;;10.66;100.00;97161.22;5010128;28;20080;-69
2022/10/11 02:40:24;;;;;;;14.02;9.20;;;;;;;10.61;100.00;97161.47;5010336;28;20022;-69
2022/10/11 02:42:58;;;;;;;15.80;8.95;;;;;;;10.73;100.00;97159.78;5010920;28;20034;-68
2022/10/11 02:45:33;;;;;;;12.23;8.98;;;;;;;10.80;100.00;97157.97;5010195;28;20034;-69
2022/10/11 02:47:59;;;;;;;16.98;10.32;;;;;;;10.81;100.00;97158.78;5012908;28;20038;-68
2022/10/11 02:50:25;;;;;;;13.18;9.13;;;;;;;10.84;100.00;97153.41;5012519;28;20502;-69
2022/10/11 02:52:51;;;;;;;15.15;9.73;;;;;;;10.89;100.00;97150.38;5010759;28;20034;-69
2022/10/11 02:55:16;;;;;;;17.10;11.27;;;;;;;10.87;100.00;97140.91;5010311;28;20026;-69
2022/10/11 02:57:42;;;;;;;19.63;11.52;;;;;;;10.86;100.00;97147.56;5011532;28;20033;-68
2022/10/11 03:00:09;;;;;;;16.70;11.40;;;;;;;10.93;100.00;97134.03;5011567;28;20041;-69
2022/10/11 03:02:34;;;;;;;21.88;12.13;;;;;;;11.07;100.00;97131.59;5010366;28;20030;-68
2022/10/11 03:05:00;;;;;;;23.38;12.70;;;;;;;11.06;100.00;97138.22;5011343;28;20111;-69
2022/10/11 03:07:25;;;;;;;16.55;11.52;;;;;;;11.07;100.00;97148.03;5011429;28;20041;-68
2022/10/11 03:09:50;;;;;;;16.08;11.13;;;;;;;11.14;100.00;97155.59;5011587;28;20034;-69
2022/10/11 03:12:16;;;;;;;22.98;11.38;;;;;;;11.18;100.00;97150.19;5010352;28;20180;-69
2022/10/11 03:14:41;;;;;;;19.08;11.00;;;;;;;11.18;100.00;97144.69;5011513;28;20483;-68
2022/10/11 03:17:07;;;;;;;19.08;11.98;;;;;;;11.22;100.00;97142.84;4993106;28;20022;-68
2022/10/11 03:19:32;;;;;;;20.73;11.60;;;;;;;11.26;100.00;97144.50;5011220;28;20041;-69
2022/10/11 03:21:58;;;;;;;22.63;12.55;;;;;;;11.26;100.00;97143.72;5010349;28;20187;-69
2022/10/11 03:24:24;;;;;;;20.35;12.93;;;;;;;11.33;100.00;97146.59;5016196;28;20049;-69
2022/10/11 03:26:49;;;;;;;19.23;11.85;;;;;;;11.35;100.00;97152.53;5017574;28;20034;-69
2022/10/11 03:29:14;;;;;;;21.10;12.88;;;;;;;11.36;100.00;97151.38;5016717;28;20105;-68
2022/10/11 03:31:40;;;;;;;17.98;11.35;;;;;;;11.38;100.00;97162.78;4996830;28;20113;-68
2022/10/11 03:34:05;;;;;;;22.67;11.02;;;;;;;11.44;100.00;97160.53;5011903;28;20096;-68
2022/10/11 03:36:31;;;;;;;15.80;9.82;;;;;;;11.42;100.00;97155.41;5010451;28;20029;-68
2022/10/11 03:38:58;;;;;;;11.85;8.80;;;;;;;11.48;100.00;97158.66;5010985;28;20057;-68
2022/10/11 03:41:23;;;;;;;12.00;8.48;;;;;;;11.51;100.00;97160.69;5010821;28;20487;-68
2022/10/11 03:43:48;;;;;;;15.80;8.98;;;;;;;11.50;100.00;97161.81;5011225;28;20030;-69
2022/10/11 03:46:14;;;;;;;11.75;7.88;;;;;;;11.51;100.00;97166.16;5010338;28;20034;-68
2022/10/11 03:48:40;;;;;;;14.68;8.77;;;;;;;11.55;100.00;97168.97;5009611;28;20049;-69
2022/10/11 03:51:05;;;;;;;11.52;7.20;;;;;;;11.58;100.00;97169.06;5009708;28;20104;-68
2022/10/11 03:53:30;;;;;;;13.23;7.30;;;;;;;11.56;100.00;97174.09;5010892;28;20487;-68
2022/10/11 03:55:56;;;;;;;16.73;8.50;;;;;;;11.47;100.00;97166.09;5009227;28;20034;-69
2022/10/11 03:58:22;;;;;;;14.40;7.40;;;;;;;11.43;100.00;97165.22;5012347;28;20057;-70
2022/10/11 04:00:48;;;;;;;11.32;7.30;;;;;;;11.48;100.00;97169.63;5011814;28;20026;-69
2022/10/11 04:03:14;;;;;;;12.02;7.13;;;;;;;11.52;100.00;97165.00;5013017;28;20116;-69
2022/10/11 04:05:39;;;;;;;9.18;7.30;;;;;;;11.60;100.00;97174.19;5011860;28;20103;-69
2022/10/11 04:08:05;;;;;;;15.35;7.47;;;;;;;11.63;100.00;97177.00;5010764;28;20045;-68
2022/10/11 04:10:30;;;;;;;16.73;7.28;;;;;;;11.69;100.00;97171.22;5011250;28;20030;-69
2022/10/11 04:12:56;;;;;;;10.40;7.75;;;;;;;11.67;100.00;97175.09;5011551;28;20089;-68
2022/10/11 04:15:22;;;;;;;16.17;7.45;;;;;;;11.61;100.00;97173.00;5011647;28;20168;-68
2022/10/11 04:17:48;;;;;;;12.05;7.15;;;;;;;11.54;100.00;97170.13;4997350;28;20113;-68
2022/10/11 04:20:13;;;;;;;12.93;7.70;;;;;;;11.55;100.00;97174.47;5014908;28;20152;-69
2022/10/11 04:22:39;;;;;;;16.88;7.18;;;;;;;11.56;100.00;97173.28;5016514;28;20038;-69
2022/10/11 04:25:05;;;;;;;12.60;7.95;;;;;;;11.58;100.00;97174.53;5017067;28;20045;-69
2022/10/11 04:27:31;;;;;;;15.40;8.30;;;;;;;11.55;100.00;97171.72;4998629;28;20033;-70
2022/10/11 04:29:56;;;;;;;12.88;7.93;;;;;;;11.51;100.00;97174.41;5015447;28;20160;-69
2022/10/11 04:32:22;;;;;;;14.80;8.48;;;;;;;11.51;100.00;97165.38;5014978;28;20038;-69
2022/10/11 04:34:47;;;;;;;15.00;8.95;;;;;;;11.41;100.00;97161.25;5014961;28;20080;-69
2022/10/11 04:37:13;;;;;;;20.35;9.32;;;;;;;11.31;100.00;97162.63;5014206;28;20114;-68
2022/10/11 04:39:38;;;;;;;16.88;8.52;;;;;;;11.25;100.00;97173.09;5013571;28;20033;-69
2022/10/11 04:42:03;;;;;;;18.25;9.13;;;;;;;11.25;100.00;97167.59;5012838;28;20030;-68
2022/10/11 04:44:29;;;;;;;12.57;8.32;;;;;;;11.24;100.00;97178.94;5012230;28;20431;-69
2022/10/11 04:46:55;;;;;;;12.82;9.05;;;;;;;11.25;100.00;97175.00;5010931;28;20471;-69
2022/10/11 04:49:21;;;;;;;17.25;8.38;;;;;;;11.22;100.00;97173.00;5021759;28;20030;-68
2022/10/11 04:51:46;;;;;;;14.98;8.98;;;;;;;11.27;100.00;97176.25;5014230;28;20036;-69
2022/10/11 04:54:12;;;;;;;17.50;9.52;;;;;;;11.27;100.00;97172.69;5014329;28;20132;-69
2022/10/11 04:56:37;;;;;;;17.00;9.68;;;;;;;11.21;100.00;97176.91;5013578;28;20025;-69
2022/10/11 04:59:03;;;;;;;12.55;8.73;;;;;;;11.18;100.00;97185.81;5014943;28;20030;-69
2022/10/11 05:01:28;;;;;;;14.82;9.48;;;;;;;11.24;100.00;97181.66;5014003;28;20096;-70
2022/10/11 05:03:53;;;;;;;17.63;8.73;;;;;;;11.26;100.00;97184.84;5016250;28;20376;-70
2022/10/11 05:06:19;;;;;;;16.85;8.85;;;;;;;11.18;100.00;97188.56;5012176;28;20045;-69
2022/10/11 05:08:44;;;;;;;12.45;8.40;;;;;;;11.20;100.00;97180.78;5013801;28;20137;-69
2022/10/11 05:11:12;;;;;;;19.48;8.40;;;;;;;11.26;100.00;97184.84;5012771;28;20022;-69
2022/10/11 05:13:38;;;;;;;14.98;9.10;;;;;;;11.09;100.00;97183.28;5013919;28;20069;-69
2022/10/11 05:16:04;;;;;;;24.48;11.55;;;;;;;10.89;100.00;97185.19;5012757;28;20065;-67
2022/10/11 05:18:30;;;;;;;21.88;9.07;;;;;;;10.82;100.00;97194.06;5012687;28;20030;-68
2022/10/11 05:21:17;;;;;;;15.23;9.65;;;;;;;10.93;100.00;97194.31;5013638;28;20418;-68
2022/10/11 05:23:43;;;;;;;15.82;8.95;;;;;;;11.01;100.00;97189.78;5012896;28;20034;-68
2022/10/11 05:26:09;;;;;;;16.40;10.02;;;;;;;11.07;100.00;97196.56;5008590;28;20502;-68
2022/10/11 05:28:35;;;;;;;19.17;9.50;;;;;;;11.09;100.00;97184.09;5011221;28;20037;-68
2022/10/11 05:31:00;;;;;;;15.13;9.93;;;;;;;11.13;100.00;97191.59;5013470;28;20482;-67
2022/10/11 05:33:26;;;;;;;19.30;9.05;;;;;;;11.17;100.00;97189.75;5012178;28;20435;-68
2022/10/11 05:35:51;;;;;;;16.42;9.10;;;;;;;11.20;100.00;97195.31;4995444;28;20032;-68
2022/10/11 05:38:17;;;;;;;18.35;10.05;;;;;;;11.24;100.00;97198.13;5020038;28;20033;-68
2022/10/11 05:40:43;;;;;;;15.82;9.48;;;;;;;11.27;100.00;97203.69;5017130;28;20038;-68
2022/10/11 05:43:08;;;;;;;14.80;8.73;;;;;;;11.28;100.00;97209.94;5013266;28;20541;-68
2022/10/11 05:45:36;;;;;;;13.77;8.85;;;;;;;11.22;100.00;97214.13;5012712;28;20131;-68
2022/10/11 05:48:01;;;;;;;18.45;8.43;;;;;;;11.09;100.00;97211.50;5012410;28;20096;-69
2022/10/11 05:50:27;;;;;;;12.70;8.27;;;;;;;11.02;100.00;97214.09;5012336;28;20368;-70
2022/10/11 05:52:52;;;;;;;12.75;8.25;;;;;;;11.09;100.00;97218.91;5013537;28;20548;-69
2022/10/11 05:55:18;;;;;;;12.88;8.45;;;;;;;11.13;100.00;97216.25;5013908;28;20037;-69
2022/10/11 05:57:46;;;;;;;22.77;9.23;;;;;;;11.19;100.00;97217.59;5012167;28;20399;-68
2022/10/11 06:00:12;;;;;;;13.75;8.07;;;;;;;11.21;100.00;97220.75;5013773;28;20038;-69
2022/10/11 06:02:37;;;;;;;11.50;8.60;;;;;;;11.33;100.00;97219.84;5012107;28;20052;-69
2022/10/11 06:05:03;;;;;;;13.07;8.52;;;;;;;11.48;100.00;97216.25;5011965;28;20036;-69
2022/10/11 06:07:29;;;;;;;17.38;8.30;;;;;;;11.61;100.00;97222.38;5012437;28;20033;-70
2022/10/11 06:09:54;;;;;;;19.85;8.93;;;;;;;11.69;100.00;97226.09;5013111;28;20034;-69
2022/10/11 06:12:20;;;;;;;15.25;8.07;;;;;;;11.71;100.00;97232.81;5013343;28;20083;-70
2022/10/11 06:14:46;;;;;;;23.63;14.75;;;;;;;11.72;100.00;97237.16;5013548;28;20034;-69
2022/10/11 06:17:12;;;;;;;20.67;10.27;;;;;;;11.81;100.00;97234.16;5011234;28;20487;-68
2022/10/11 06:19:37;;;;;;;15.10;9.77;;;;;;;11.83;100.00;97229.91;5012690;28;20113;-69
2022/10/11 06:22:02;;;;;;;16.88;8.30;;;;;;;11.89;100.00;97229.63;5011735;28;20157;-69
2022/10/11 06:24:28;;;;;;;16.83;8.10;;;;;;;11.94;100.00;97235.66;5011702;28;20033;-69
2022/10/11 06:26:54;;;;;;;14.40;9.80;;;;;;;12.09;100.00;97235.91;5012729;28;20030;-68
2022/10/11 06:29:20;;;;;;;17.25;9.45;;;;;;;12.18;100.00;97229.03;5011573;28;20037;-68
2022/10/11 06:31:47;;;;;;;13.98;8.40;;;;;;;12.28;100.00;97232.31;5011355;28;20082;-69
2022/10/11 06:34:12;;;;;;;15.40;8.05;;;;;;;12.09;100.00;97231.22;5012223;28;20030;-69
2022/10/11 06:36:37;;;;;;;60.13;41.95;;;;;;;11.90;100.00;97236.69;5012312;28;20048;-68
2022/10/11 06:39:03;;;;;;;21.05;10.77;;;;;;;11.99;100.00;97237.28;5027223;28;20084;-69
2022/10/11 06:41:47;;;;;;;16.17;10.65;;;;;;;12.06;100.00;97242.91;5012562;28;20055;-68
2022/10/11 06:44:14;;;;;;;16.23;11.18;;;;;;;12.40;100.00;97246.69;5012836;28;20105;-69
2022/10/11 06:46:40;;;;;;;14.18;7.28;;;;;;;12.70;100.00;97251.53;5012645;28;20026;-69
2022/10/11 06:49:06;;;;;;;12.23;8.23;;;;;;;12.90;100.00;97249.50;5013254;28;20026;-70
2022/10/11 06:51:33;;;;;;;14.70;8.63;;;;;;;13.04;100.00;97251.69;5027970;28;20494;-69
2022/10/11 06:53:58;;;;;;;17.17;8.63;;;;;;;13.25;100.00;97255.91;5012110;28;20137;-70
2022/10/11 06:56:25;;;;;;;11.00;7.63;;;;;;;13.82;100.00;97253.97;5011202;28;20193;-69
2022/10/11 06:58:53;;;;;;;12.73;7.18;;;;;;;14.43;100.00;97254.66;5011804;28;20029;-68
2022/10/11 07:01:20;;;;;;;11.32;8.23;;;;;;;14.22;100.00;97257.97;5012087;28;20045;-69
2022/10/11 07:03:46;;;;;;;13.05;5.63;;;;;;;14.13;100.00;97263.78;5011980;28;20105;-69
2022/10/11 07:06:35;;;;;;;14.68;6.55;;;;;;;13.44;100.00;97263.28;5011367;28;20030;-68
2022/10/11 07:09:01;;;;;;;11.80;6.37;;;;;;;13.35;100.00;97267.09;5010264;28;20411;-68
2022/10/11 07:11:27;;;;;;;17.42;6.45;;;;;;;13.40;100.00;97274.25;4990617;28;20335;-68
2022/10/11 07:13:58;;;;;;;14.95;6.65;;;;;;;13.67;100.00;97275.00;5001808;28;20407;-68
2022/10/11 07:16:25;;;;;;;14.15;6.35;;;;;;;13.68;100.00;97278.56;4995619;28;20783;-68
2022/10/11 07:18:53;;;;;;;16.92;5.78;;;;;;;13.72;100.00;97279.38;5004086;28;20391;-67
2022/10/11 07:21:19;;;;;;;21.17;6.20;;;;;;;13.80;100.00;97277.53;4998778;28;20057;-68
2022/10/11 07:23:44;;;;;;;14.60;5.63;;;;;;;14.07;100.00;97284.56;5002621;28;20041;-68
2022/10/11 07:26:10;;;;;;;16.70;5.78;;;;;;;14.09;100.00;97286.94;4997038;28;20065;-67
2022/10/11 07:28:37;;;;;;;14.25;6.05;;;;;;;13.48;100.00;97286.94;5001906;28;20466;-67
2022/10/11 07:31:09;;;;;;;11.30;6.07;;;;;;;13.58;100.00;97286.28;4997410;28;20046;-69
2022/10/11 07:33:34;;;;;;;14.30;6.40;;;;;;;13.30;100.00;97292.13;4995522;28;20222;-69
2022/10/11 07:36:00;;;;;;;11.50;6.07;;;;;;;13.57;100.00;97287.44;4991259;28;20058;-67
2022/10/11 07:38:26;;;;;;;13.52;5.95;;;;;;;13.60;100.00;97294.19;4993110;28;21031;-68
2022/10/11 07:40:52;;;;;;;14.15;6.93;;;;;;;13.65;100.00;97282.84;4994292;28;20073;-67
2022/10/11 07:43:18;;;;;;;12.18;6.30;;;;;;;13.72;100.00;97282.13;4991979;28;20123;-67
2022/10/11 07:45:47;;;;;;;14.43;6.50;;;;;;;13.59;100.00;97284.31;4997120;28;20925;-67
2022/10/11 07:48:12;;;;;;;19.52;6.40;;;;;;;13.59;100.00;97289.84;4997534;28;20129;-68
2022/10/11 07:50:38;;;;;;;13.02;5.60;;;;;;;13.57;100.00;97295.69;4999883;28;20123;-68
2022/10/11 07:53:03;;;;;;;16.40;6.93;;;;;;;13.51;100.00;97288.16;4997437;28;20073;-67
2022/10/11 07:55:32;;;;;;;15.13;6.32;;;;;;;13.52;100.00;97298.00;4994826;28;20098;-67
2022/10/11 07:57:58;;;;;;;12.80;6.45;;;;;;;13.68;100.00;97301.34;4989611;28;20562;-67
2022/10/11 08:00:23;;;;;;;14.43;6.35;;;;;;;13.60;100.00;97310.69;5172180;23;20093;-67
2022/10/11 08:02:49;;;;;;;21.30;6.60;;;;;;;13.80;100.00;97305.06;4994317;28;20038;-68
2022/10/11 08:05:14;;;;;;;11.32;6.70;;;;;;;13.69;100.00;97307.69;4995587;28;20045;-67
2022/10/11 08:07:40;;;;;;;12.13;6.43;;;;;;;13.51;100.00;97313.72;5001401;28;20054;-67
2022/10/11 08:10:07;;;;;;;16.85;6.65;;;;;;;13.64;100.00;97305.25;4994853;28;20589;-67
2022/10/11 08:12:33;;;;;;;15.48;6.32;;;;;;;13.61;100.00;97305.97;4980758;28;20042;-68
2022/10/11 08:14:59;;;;;;;13.38;6.82;;;;;;;13.63;100.00;97304.47;4980189;28;20390;-68
2022/10/11 08:17:25;;;;;;;13.40;6.75;;;;;;;13.85;100.00;97305.53;4979959;28;20526;-68
2022/10/11 08:19:51;;;;;;;16.92;7.28;;;;;;;14.25;100.00;97300.50;4983885;28;20133;-67
2022/10/11 08:22:16;;;;;;;17.65;6.40;;;;;;;14.18;100.00;97300.44;4979491;28;20081;-67
2022/10/11 08:24:41;;;;;;;16.23;7.93;;;;;;;14.44;100.00;97311.34;4979693;28;20540;-67
2022/10/11 08:27:07;;;;;;;23.95;7.07;;;;;;;14.40;100.00;97307.75;4974288;28;20144;-68
2022/10/11 08:29:33;;;;;;;17.08;6.18;;;;;;;14.58;100.00;97315.47;4978892;28;20049;-67
2022/10/11 08:31:58;;;;;;;13.95;6.70;;;;;;;14.51;100.00;97313.38;4977799;28;20035;-66
2022/10/11 08:34:24;;;;;;;20.70;8.10;;;;;;;14.80;100.00;97313.69;4972954;28;20050;-67
2022/10/11 08:36:49;;;;;;;27.77;7.60;;;;;;;15.51;100.00;97307.97;4979715;28;20038;-67
2022/10/11 08:39:15;;;;;;;20.95;8.13;;;;;;;15.43;100.00;97307.13;4975339;28;20105;-67
2022/10/11 08:41:51;;;;;;;12.45;5.82;;;;;;;15.04;100.00;97304.88;4979836;28;20046;-65
2022/10/11 08:44:41;;;;;;;19.80;5.47;;;;;;;15.12;100.00;97305.69;4975367;28;20050;-67
2022/10/11 08:47:18;;;;;;;12.68;6.03;;;;;;;15.40;100.00;97304.34;4971212;28;20042;-67
2022/10/11 08:49:43;;;;;;;16.83;6.05;;;;;;;15.58;100.00;97307.22;4979721;28;20141;-68
2022/10/11 08:52:33;;;;;;;15.70;5.07;;;;;;;16.14;100.00;97307.94;4976659;28;20040;-67
2022/10/11 08:55:02;;;;;;;;;;;;;;;16.51;100.00;97301.34;4981882;28;20046;-67
2022/10/11 08:57:30;;;;;;;15.00;5.10;;;;;;;17.68;100.00;97296.25;4977435;28;19914;-66
2022/10/11 08:59:59;;;;;;;17.27;5.13;;;;;;;17.46;100.00;97292.72;4981546;28;20062;-66
2022/10/11 09:02:33;;;;;;;14.70;4.77;;;;;;;17.33;100.00;97292.34;4978995;28;20133;-67
2022/10/11 09:05:00;;;;;;;13.13;4.53;;;;;;;18.11;100.00;97293.38;4984667;28;20073;-67
2022/10/11 09:07:59;;;;;;;12.52;4.47;;;;;;;18.37;100.00;97294.06;4979692;28;20074;-67
2022/10/11 09:10:40;;;;;;;13.55;5.30;;;;;;;17.42;100.00;97294.72;4979348;28;20049;-67
2022/10/11 09:13:30;;;;;;;15.75;5.53;;;;;;;17.73;100.00;97293.84;4979869;28;20065;-67
2022/10/11 09:16:01;;;;;;;14.50;4.72;;;;;;;17.56;100.00;97294.72;4984281;28;20122;-66
2022/10/11 09:18:51;;;;;;;12.43;4.72;;;;;;;17.87;100.00;97298.59;4971270;28;20040;-66
2022/10/11 09:21:50;;;;;;;18.67;4.93;;;;;;;18.17;100.00;97290.97;4980543;28;20550;-67
2022/10/11 09:24:18;;;;;;;11.18;4.97;;;;;;;17.88;100.00;97297.44;4980604;28;20142;-67
2022/10/11 09:27:20;;;;;;;20.20;4.82;;;;;;;17.55;100.00;97288.34;4988942;28;20046;-66
2022/10/11 09:30:08;;;;;;;15.75;5.18;;;;;;;17.63;100.00;97286.38;4980644;28;20140;-66
2022/10/11 09:32:38;;;;;;;15.73;4.78;;;;;;;17.23;100.00;97282.84;4977289;28;20046;-66
2022/10/11 09:35:13;;;;;;;17.75;5.07;;;;;;;17.76;100.00;97286.75;4980576;28;20080;-67
2022/10/11 09:37:59;;;;;;;14.57;5.05;;;;;;;17.34;100.00;97285.63;4982097;28;20041;-66
2022/10/11 09:40:27;;;;;;;16.90;4.88;;;;;;;17.77;100.00;97286.34;4979240;28;20426;-66
2022/10/11 09:42:53;;;;;;;18.17;5.03;;;;;;;17.63;100.00;97280.84;4982918;28;20053;-67
2022/10/11 09:45:20;;;;;;;11.65;4.07;;;;;;;17.70;100.00;97280.81;4977350;28;20042;-66
2022/10/11 09:47:48;;;;;;;14.57;5.07;;;;;;;18.25;100.00;97289.75;4984260;28;20034;-66
2022/10/11 09:50:20;;;;;;;19.85;5.28;;;;;;;17.68;100.00;97277.66;4979819;28;20045;-66
2022/10/11 09:52:58;;;;;;;10.77;4.43;;;;;;;17.84;100.00;97282.75;4984132;28;20492;-65
2022/10/11 09:55:30;;;;;;;12.13;4.55;;;;;;;18.48;100.00;97292.81;4978465;28;20518;-65
2022/10/11 09:57:56;;;;;;;18.60;4.25;;;;;;;18.22;100.00;97288.59;4984026;28;20072;-65
2022/10/11 10:00:27;;;;;;;12.70;4.15;;;;;;;18.71;100.00;97285.94;4979909;28;20544;-66
2022/10/11 10:02:55;;;;;;;13.63;4.43;;;;;;;18.64;100.00;97286.78;4985540;28;20070;-66
2022/10/11 10:05:28;;;;;;;12.82;5.00;;;;;;;18.20;100.00;97290.19;4980365;28;20050;-66
2022/10/11 10:08:00;;;;;;;12.02;4.25;;;;;;;18.28;100.00;97288.97;4987902;28;20042;-65
2022/10/11 10:10:32;;;;;;;12.25;4.53;;;;;;;18.09;100.00;97293.00;4980784;28;20042;-66
2022/10/11 10:13:01;;;;;;;14.05;4.38;;;;;;;18.06;100.00;97291.00;4983858;28;20264;-67
2022/10/11 10:15:35;;;;;;;24.23;5.53;;;;;;;18.00;100.00;97285.09;4959577;28;20476;-67
2022/10/11 10:18:02;;;;;;;23.80;4.45;;;;;;;18.52;100.00;97287.25;4965269;28;20125;-67
2022/10/11 10:20:34;;;;;;;15.00;4.78;;;;;;;18.14;100.00;97287.81;4987899;28;20074;-68
2022/10/11 10:23:06;;;;;;;16.95;5.10;;;;;;;18.12;100.00;97283.88;4985363;28;20125;-67
2022/10/11 10:25:36;;;;;;;13.85;4.88;;;;;;;18.32;100.00;97281.41;4982568;28;20042;-67
2022/10/11 10:28:15;;;;;;;11.10;4.22;;;;;;;18.26;100.00;97283.03;4981058;28;20042;-68
2022/10/11 10:30:56;;;;;;;15.63;4.10;;;;;;;17.75;100.00;97288.72;4982919;28;20121;-68
2022/10/11 10:33:23;;;;;;;14.45;4.18;;;;;;;18.29;100.00;97280.25;4978841;28;20176;-67
2022/10/11 10:36:07;;;;;;;18.20;4.57;;;;;;;18.24;100.00;97272.34;4982997;28;20458;-67
2022/10/11 10:38:39;;;;;;;19.83;4.03;;;;;;;18.86;100.00;97272.78;4982831;28;20039;-67
2022/10/11 10:41:08;;;;;;;19.15;4.28;;;;;;;18.86;100.00;97275.56;4978443;28;20455;-66
2022/10/11 10:43:35;;;;;;;;;;;;;;;19.60;100.00;97269.75;4981412;28;20050;-65
2022/10/11 10:46:12;;;;;;;13.32;3.95;;;;;;;21.13;90.61;97266.16;4981289;28;19918;-66
2022/10/11 10:48:49;;;;;;;16.95;4.93;;;;;;;19.52;100.00;97262.69;4981511;28;20045;-65
2022/10/11 10:51:28;;;;;;;12.05;4.75;;;;;;;18.77;100.00;97267.66;4978140;28;20054;-66
2022/10/11 10:54:10;;;;;;;16.10;4.43;;;;;;;18.84;100.00;97264.09;4983043;28;20046;-66
2022/10/11 10:56:45;;;;;;;21.88;4.75;;;;;;;18.37;100.00;97264.34;4981823;28;20042;-66
2022/10/11 10:59:48;;;;;;;11.15;3.83;;;;;;;18.24;100.00;97263.22;4976422;28;20112;-67
2022/10/11 11:02:28;;;;;;;18.33;4.05;;;;;;;18.86;100.00;97253.34;4978010;28;20407;-67
2022/10/11 11:05:12;;;;;;;14.95;4.20;;;;;;;17.94;100.00;97259.78;4980197;28;20054;-67
2022/10/11 11:08:11;;;;;;;15.68;4.72;;;;;;;17.74;100.00;97253.91;4975748;28;20049;-67
2022/10/11 11:10:51;;;;;;;15.40;4.32;;;;;;;18.13;100.00;97263.25;4985864;28;20065;-67
2022/10/11 11:14:01;;;;;;;17.27;4.45;;;;;;;18.30;100.00;97256.84;4987031;28;20046;-67
2022/10/11 11:16:36;;;;;;;16.20;4.07;;;;;;;18.64;100.00;97255.47;4956300;28;20129;-67
2022/10/11 11:19:35;;;;;;;15.27;3.83;;;;;;;19.54;100.00;97244.41;4981668;28;20042;-67
2022/10/11 11:22:08;;;;;;;11.95;3.90;;;;;;;18.84;99.33;97239.09;4982641;28;20100;-67
2022/10/11 11:24:40;;;;;;;18.23;3.70;;;;;;;19.00;95.35;97244.13;4981144;28;20043;-66
2022/10/11 11:27:21;;;;;;;17.35;4.00;;;;;;;18.94;96.98;97237.44;4977552;28;20104;-67